LEAL/ALC METAR and TAF weather

Enter ICAO airport designator
Station Type Date Time Source
LEAL METAR 2022/08/13 13:00 UTC NOAA

LEAL 131300Z 31011KT 280V350 9999 FEW010 41/10 Q1011 TEMPO 14020G30KT FEW040TCU


Station Type Date Time Source
LEAL Decoded METAR 2022/08/13 13:00 UTC NOAA

Alicante / El Altet, Spain (LEAL) 38-17N 000-33W 31M
Aug 13, 2022 - 09:00 AM EDT / 2022.08.13 1300 UTC
Wind: from the NW (310 degrees) at 13 MPH (11 KT) (direction variable):0
Visibility: greater than 7 mile(s):0
Sky conditions: mostly clear
Weather: Towering cumulus clouds observed
Temperature: 105 F (41 C)
Dew Point: 50 F (10 C)
Relative Humidity: 15%
Pressure (altimeter): 29.85 in. Hg (1011 hPa)
ob: LEAL 131300Z 31011KT 280V350 9999 FEW010 41/10 Q1011 TEMPO 14020G30KT FEW040TCU
cycle: 13

Station Type Date Time Source
LEAL TAF 2022/08/13 12:27 UTC NOAA

TAF TAF LEAL 131100Z 1312/1412 14015KT 9999 FEW040 TX40/1314Z TN24/1406Z
TEMPO 1312/1321 14020G30KT FEW040TCU PROB40
TEMPO 1316/1320 35025G40KT 3000 TSRA FEW050CB
BECMG 1321/1323 VRB03KT

Example: see airport list